sensor_id;sensor_type;location;lat;lon;timestamp;P1;P2;P0
37709;PMS5003;60223;34.854;-92.408;2024-01-16T00:20:43;5;4;
37709;PMS5003;60223;34.854;-92.408;2024-01-16T00:23:09;3;3;
37709;PMS5003;60223;34.854;-92.408;2024-01-16T00:25:35;0;0;
37709;PMS5003;60223;34.854;-92.408;2024-01-16T00:28:01;3;3;
37709;PMS5003;60223;34.854;-92.408;2024-01-16T00:30:25;4;2;
37709;PMS5003;60223;34.854;-92.408;2024-01-16T00:32:52;1;1;
37709;PMS5003;60223;34.854;-92.408;2024-01-16T00:35:17;2;2;
37709;PMS5003;60223;34.854;-92.408;2024-01-16T00:37:43;4;3;
37709;PMS5003;60223;34.854;-92.408;2024-01-16T00:40:08;2;2;
37709;PMS5003;60223;34.854;-92.408;2024-01-16T00:42:34;5;5;
37709;PMS5003;60223;34.854;-92.408;2024-01-16T00:45:00;6;6;
37709;PMS5003;60223;34.854;-92.408;2024-01-16T00:47:25;7;7;
37709;PMS5003;60223;34.854;-92.408;2024-01-16T00:49:51;10;9;
37709;PMS5003;60223;34.854;-92.408;2024-01-16T00:52:16;8;8;
37709;PMS5003;60223;34.854;-92.408;2024-01-16T00:54:42;10;10;
37709;PMS5003;60223;34.854;-92.408;2024-01-16T00:57:08;11;11;
37709;PMS5003;60223;34.854;-92.408;2024-01-16T00:59:33;14;13;
37709;PMS5003;60223;34.854;-92.408;2024-01-16T01:01:58;11;11;
37709;PMS5003;60223;34.854;-92.408;2024-01-16T01:04:25;14;13;
37709;PMS5003;60223;34.854;-92.408;2024-01-16T01:06:50;12;12;
37709;PMS5003;60223;34.854;-92.408;2024-01-16T01:09:16;12;12;
37709;PMS5003;60223;34.854;-92.408;2024-01-16T01:11:40;16;14;
37709;PMS5003;60223;34.854;-92.408;2024-01-16T01:14:07;17;17;
37709;PMS5003;60223;34.854;-92.408;2024-01-16T01:16:33;16;16;
37709;PMS5003;60223;34.854;-92.408;2024-01-16T01:18:56;12;12;
37709;PMS5003;60223;34.854;-92.408;2024-01-16T01:21:24;13;13;
37709;PMS5003;60223;34.854;-92.408;2024-01-16T01:23:48;12;11;
37709;PMS5003;60223;34.854;-92.408;2024-01-16T01:26:15;13;13;
37709;PMS5003;60223;34.854;-92.408;2024-01-16T01:28:41;13;13;
37709;PMS5003;60223;34.854;-92.408;2024-01-16T01:31:08;10;10;
37709;PMS5003;60223;34.854;-92.408;2024-01-16T01:33:32;11;11;
37709;PMS5003;60223;34.854;-92.408;2024-01-16T01:35:57;18;16;
37709;PMS5003;60223;34.854;-92.408;2024-01-16T01:38:23;12;10;
37709;PMS5003;60223;34.854;-92.408;2024-01-16T01:40:48;12;11;
37709;PMS5003;60223;34.854;-92.408;2024-01-16T01:43:19;10;10;
37709;PMS5003;60223;34.854;-92.408;2024-01-16T01:45:39;11;10;
37709;PMS5003;60223;34.854;-92.408;2024-01-16T01:48:05;12;11;
37709;PMS5003;60223;34.854;-92.408;2024-01-16T01:50:31;9;9;
37709;PMS5003;60223;34.854;-92.408;2024-01-16T01:52:56;9;9;
37709;PMS5003;60223;34.854;-92.408;2024-01-16T01:55:22;10;10;
37709;PMS5003;60223;34.854;-92.408;2024-01-16T01:57:48;11;11;
37709;PMS5003;60223;34.854;-92.408;2024-01-16T02:00:12;10;9;
37709;PMS5003;60223;34.854;-92.408;2024-01-16T02:02:39;9;9;
37709;PMS5003;60223;34.854;-92.408;2024-01-16T02:05:05;11;10;
37709;PMS5003;60223;34.854;-92.408;2024-01-16T02:07:30;9;9;
37709;PMS5003;60223;34.854;-92.408;2024-01-16T02:12:20;12;11;
37709;PMS5003;60223;34.854;-92.408;2024-01-16T02:14:47;10;10;
37709;PMS5003;60223;34.854;-92.408;2024-01-16T02:17:12;9;9;
37709;PMS5003;60223;34.854;-92.408;2024-01-16T02:19:38;7;7;
37709;PMS5003;60223;34.854;-92.408;2024-01-16T02:29:20;8;8;
37709;PMS5003;60223;34.854;-92.408;2024-01-16T02:31:46;7;7;
37709;PMS5003;60223;34.854;-92.408;2024-01-16T02:34:12;7;7;
37709;PMS5003;60223;34.854;-92.408;2024-01-16T02:36:37;6;6;
37709;PMS5003;60223;34.854;-92.408;2024-01-16T02:39:03;8;8;
37709;PMS5003;60223;34.854;-92.408;2024-01-16T02:41:28;8;8;
37709;PMS5003;60223;34.854;-92.408;2024-01-16T02:43:55;6;6;
37709;PMS5003;60223;34.854;-92.408;2024-01-16T02:46:20;5;5;
37709;PMS5003;60223;34.854;-92.408;2024-01-16T02:48:45;7;6;
37709;PMS5003;60223;34.854;-92.408;2024-01-16T02:51:09;7;7;
37709;PMS5003;60223;34.854;-92.408;2024-01-16T02:53:37;8;8;
37709;PMS5003;60223;34.854;-92.408;2024-01-16T02:56:03;6;6;
37709;PMS5003;60223;34.854;-92.408;2024-01-16T02:58:28;5;5;
37709;PMS5003;60223;34.854;-92.408;2024-01-16T03:00:52;7;7;
37709;PMS5003;60223;34.854;-92.408;2024-01-16T03:03:19;6;5;
37709;PMS5003;60223;34.854;-92.408;2024-01-16T03:05:45;5;5;
37709;PMS5003;60223;34.854;-92.408;2024-01-16T03:08:10;6;6;
37709;PMS5003;60223;34.854;-92.408;2024-01-16T03:10:35;5;5;
37709;PMS5003;60223;34.854;-92.408;2024-01-16T03:13:02;7;7;
37709;PMS5003;60223;34.854;-92.408;2024-01-16T03:15:27;6;6;
37709;PMS5003;60223;34.854;-92.408;2024-01-16T03:17:53;6;6;
37709;PMS5003;60223;34.854;-92.408;2024-01-16T03:20:19;4;4;
37709;PMS5003;60223;34.854;-92.408;2024-01-16T03:22:43;5;5;
37709;PMS5003;60223;34.854;-92.408;2024-01-16T03:25:10;7;6;
37709;PMS5003;60223;34.854;-92.408;2024-01-16T03:27:35;6;6;
37709;PMS5003;60223;34.854;-92.408;2024-01-16T03:30:01;6;6;
37709;PMS5003;60223;34.854;-92.408;2024-01-16T03:32:24;5;5;
37709;PMS5003;60223;34.854;-92.408;2024-01-16T03:34:52;3;3;
37709;PMS5003;60223;34.854;-92.408;2024-01-16T03:37:18;4;4;
37709;PMS5003;60223;34.854;-92.408;2024-01-16T03:39:44;4;4;
37709;PMS5003;60223;34.854;-92.408;2024-01-16T03:42:08;4;4;
37709;PMS5003;60223;34.854;-92.408;2024-01-16T03:44:38;6;5;
37709;PMS5003;60223;34.854;-92.408;2024-01-16T03:47:00;4;4;
37709;PMS5003;60223;34.854;-92.408;2024-01-16T03:49:26;3;3;
37709;PMS5003;60223;34.854;-92.408;2024-01-16T03:51:50;3;3;
37709;PMS5003;60223;34.854;-92.408;2024-01-16T03:54:16;3;3;
37709;PMS5003;60223;34.854;-92.408;2024-01-16T03:56:43;4;4;
37709;PMS5003;60223;34.854;-92.408;2024-01-16T03:59:08;3;3;
37709;PMS5003;60223;34.854;-92.408;2024-01-16T04:01:32;3;3;
37709;PMS5003;60223;34.854;-92.408;2024-01-16T04:04:01;3;3;
37709;PMS5003;60223;34.854;-92.408;2024-01-16T04:06:25;3;3;
37709;PMS5003;60223;34.854;-92.408;2024-01-16T04:08:51;3;3;
37709;PMS5003;60223;34.854;-92.408;2024-01-16T04:11:16;3;3;
37709;PMS5003;60223;34.854;-92.408;2024-01-16T04:13:41;4;4;
37709;PMS5003;60223;34.854;-92.408;2024-01-16T04:16:08;4;4;
37709;PMS5003;60223;34.854;-92.408;2024-01-16T04:18:35;3;3;
37709;PMS5003;60223;34.854;-92.408;2024-01-16T04:20:59;2;2;
37709;PMS5003;60223;34.854;-92.408;2024-01-16T04:23:23;2;2;
37709;PMS5003;60223;34.854;-92.408;2024-01-16T04:25:50;3;3;
37709;PMS5003;60223;34.854;-92.408;2024-01-16T04:28:16;3;3;
37709;PMS5003;60223;34.854;-92.408;2024-01-16T04:30:41;2;2;
37709;PMS5003;60223;34.854;-92.408;2024-01-16T04:33:06;2;2;
37709;PMS5003;60223;34.854;-92.408;2024-01-16T04:35:30;3;3;
37709;PMS5003;60223;34.854;-92.408;2024-01-16T04:37:58;3;3;
37709;PMS5003;60223;34.854;-92.408;2024-01-16T04:40:24;2;2;
37709;PMS5003;60223;34.854;-92.408;2024-01-16T04:42:48;1;1;
37709;PMS5003;60223;34.854;-92.408;2024-01-16T04:45:15;3;3;
37709;PMS5003;60223;34.854;-92.408;2024-01-16T04:47:40;2;2;
37709;PMS5003;60223;34.854;-92.408;2024-01-16T04:50:07;3;3;
37709;PMS5003;60223;34.854;-92.408;2024-01-16T04:52:32;4;4;
37709;PMS5003;60223;34.854;-92.408;2024-01-16T04:54:55;3;3;
37709;PMS5003;60223;34.854;-92.408;2024-01-16T04:57:23;2;2;
37709;PMS5003;60223;34.854;-92.408;2024-01-16T04:59:49;2;2;
37709;PMS5003;60223;34.854;-92.408;2024-01-16T05:02:13;3;3;
37709;PMS5003;60223;34.854;-92.408;2024-01-16T05:04:41;5;3;
37709;PMS5003;60223;34.854;-92.408;2024-01-16T05:07:06;2;2;
37709;PMS5003;60223;34.854;-92.408;2024-01-16T05:09:30;3;3;
37709;PMS5003;60223;34.854;-92.408;2024-01-16T05:11:57;3;3;
37709;PMS5003;60223;34.854;-92.408;2024-01-16T05:14:23;3;3;
37709;PMS5003;60223;34.854;-92.408;2024-01-16T05:16:48;3;3;
37709;PMS5003;60223;34.854;-92.408;2024-01-16T05:19:14;3;3;
37709;PMS5003;60223;34.854;-92.408;2024-01-16T05:21:40;1;1;
37709;PMS5003;60223;34.854;-92.408;2024-01-16T05:24:05;2;2;
37709;PMS5003;60223;34.854;-92.408;2024-01-16T05:26:30;2;2;
37709;PMS5003;60223;34.854;-92.408;2024-01-16T05:28:56;3;3;
37709;PMS5003;60223;34.854;-92.408;2024-01-16T05:31:22;2;2;
37709;PMS5003;60223;34.854;-92.408;2024-01-16T05:33:46;2;2;
37709;PMS5003;60223;34.854;-92.408;2024-01-16T05:36:11;2;2;
37709;PMS5003;60223;34.854;-92.408;2024-01-16T05:38:39;3;3;
37709;PMS5003;60223;34.854;-92.408;2024-01-16T05:41:05;2;2;
37709;PMS5003;60223;34.854;-92.408;2024-01-16T05:43:30;5;3;
37709;PMS5003;60223;34.854;-92.408;2024-01-16T05:45:55;2;2;
37709;PMS5003;60223;34.854;-92.408;2024-01-16T05:48:22;2;2;
37709;PMS5003;60223;34.854;-92.408;2024-01-16T05:50:47;2;2;
37709;PMS5003;60223;34.854;-92.408;2024-01-16T05:53:11;0;0;
37709;PMS5003;60223;34.854;-92.408;2024-01-16T05:55:36;3;3;
37709;PMS5003;60223;34.854;-92.408;2024-01-16T05:58:04;3;3;
37709;PMS5003;60223;34.854;-92.408;2024-01-16T06:00:29;1;1;
37709;PMS5003;60223;34.854;-92.408;2024-01-16T06:02:55;2;2;
37709;PMS5003;60223;34.854;-92.408;2024-01-16T06:05:21;3;3;
37709;PMS5003;60223;34.854;-92.408;2024-01-16T06:07:46;2;2;
37709;PMS5003;60223;34.854;-92.408;2024-01-16T06:10:12;2;1;
37709;PMS5003;60223;34.854;-92.408;2024-01-16T06:12:37;2;2;
37709;PMS5003;60223;34.854;-92.408;2024-01-16T06:15:03;2;2;
37709;PMS5003;60223;34.854;-92.408;2024-01-16T06:17:29;2;2;
37709;PMS5003;60223;34.854;-92.408;2024-01-16T06:19:55;1;1;
37709;PMS5003;60223;34.854;-92.408;2024-01-16T06:22:19;0;0;
37709;PMS5003;60223;34.854;-92.408;2024-01-16T06:24:45;1;1;
37709;PMS5003;60223;34.854;-92.408;2024-01-16T06:27:11;2;2;
37709;PMS5003;60223;34.854;-92.408;2024-01-16T06:29:35;1;1;
37709;PMS5003;60223;34.854;-92.408;2024-01-16T06:32:03;1;1;
37709;PMS5003;60223;34.854;-92.408;2024-01-16T06:34:28;1;1;
37709;PMS5003;60223;34.854;-92.408;2024-01-16T06:36:54;1;1;
37709;PMS5003;60223;34.854;-92.408;2024-01-16T06:39:17;1;1;
37709;PMS5003;60223;34.854;-92.408;2024-01-16T06:41:45;3;3;
37709;PMS5003;60223;34.854;-92.408;2024-01-16T06:44:10;2;2;
37709;PMS5003;60223;34.854;-92.408;2024-01-16T06:46:36;2;2;
37709;PMS5003;60223;34.854;-92.408;2024-01-16T06:48:59;2;2;
37709;PMS5003;60223;34.854;-92.408;2024-01-16T06:51:27;2;2;
37709;PMS5003;60223;34.854;-92.408;2024-01-16T06:53:53;2;2;
37709;PMS5003;60223;34.854;-92.408;2024-01-16T06:56:19;1;1;
37709;PMS5003;60223;34.854;-92.408;2024-01-16T06:58:44;2;2;
37709;PMS5003;60223;34.854;-92.408;2024-01-16T07:01:10;2;2;
37709;PMS5003;60223;34.854;-92.408;2024-01-16T07:03:35;2;2;
37709;PMS5003;60223;34.854;-92.408;2024-01-16T07:06:01;1;1;
37709;PMS5003;60223;34.854;-92.408;2024-01-16T07:08:27;2;2;
37709;PMS5003;60223;34.854;-92.408;2024-01-16T07:10:52;1;1;
37709;PMS5003;60223;34.854;-92.408;2024-01-16T07:13:18;0;0;
37709;PMS5003;60223;34.854;-92.408;2024-01-16T07:15:43;1;1;
37709;PMS5003;60223;34.854;-92.408;2024-01-16T07:18:09;1;1;
37709;PMS5003;60223;34.854;-92.408;2024-01-16T07:20:35;3;1;
37709;PMS5003;60223;34.854;-92.408;2024-01-16T07:23:00;0;0;
37709;PMS5003;60223;34.854;-92.408;2024-01-16T07:25:24;1;1;
37709;PMS5003;60223;34.854;-92.408;2024-01-16T07:27:51;1;1;
37709;PMS5003;60223;34.854;-92.408;2024-01-16T07:30:18;2;2;
37709;PMS5003;60223;34.854;-92.408;2024-01-16T07:32:43;2;2;
37709;PMS5003;60223;34.854;-92.408;2024-01-16T07:35:08;2;2;
37709;PMS5003;60223;34.854;-92.408;2024-01-16T07:37:34;2;2;
37709;PMS5003;60223;34.854;-92.408;2024-01-16T07:39:58;1;1;
37709;PMS5003;60223;34.854;-92.408;2024-01-16T07:42:25;2;2;
37709;PMS5003;60223;34.854;-92.408;2024-01-16T07:44:52;1;1;
37709;PMS5003;60223;34.854;-92.408;2024-01-16T07:47:16;1;1;
37709;PMS5003;60223;34.854;-92.408;2024-01-16T07:49:42;1;1;
37709;PMS5003;60223;34.854;-92.408;2024-01-16T07:52:06;2;2;
37709;PMS5003;60223;34.854;-92.408;2024-01-16T07:54:33;1;1;
37709;PMS5003;60223;34.854;-92.408;2024-01-16T07:56:59;2;2;
37709;PMS5003;60223;34.854;-92.408;2024-01-16T07:59:25;2;2;
37709;PMS5003;60223;34.854;-92.408;2024-01-16T08:01:50;1;1;
37709;PMS5003;60223;34.854;-92.408;2024-01-16T08:04:13;2;2;
37709;PMS5003;60223;34.854;-92.408;2024-01-16T08:06:42;0;0;
37709;PMS5003;60223;34.854;-92.408;2024-01-16T08:09:07;2;2;
37709;PMS5003;60223;34.854;-92.408;2024-01-16T08:11:33;1;1;
37709;PMS5003;60223;34.854;-92.408;2024-01-16T08:13:57;2;2;
37709;PMS5003;60223;34.854;-92.408;2024-01-16T08:16:24;1;1;
37709;PMS5003;60223;34.854;-92.408;2024-01-16T08:18:49;2;2;
37709;PMS5003;60223;34.854;-92.408;2024-01-16T08:21:13;1;1;
37709;PMS5003;60223;34.854;-92.408;2024-01-16T08:23:41;2;2;
37709;PMS5003;60223;34.854;-92.408;2024-01-16T08:26:06;2;2;
37709;PMS5003;60223;34.854;-92.408;2024-01-16T08:28:32;1;1;
37709;PMS5003;60223;34.854;-92.408;2024-01-16T08:30:56;2;2;
37709;PMS5003;60223;34.854;-92.408;2024-01-16T08:33:23;2;2;
37709;PMS5003;60223;34.854;-92.408;2024-01-16T08:35:48;1;1;
37709;PMS5003;60223;34.854;-92.408;2024-01-16T08:45:28;2;2;
37709;PMS5003;60223;34.854;-92.408;2024-01-16T08:47:57;1;1;
37709;PMS5003;60223;34.854;-92.408;2024-01-16T08:50:22;1;1;
37709;PMS5003;60223;34.854;-92.408;2024-01-16T08:52:48;1;1;
37709;PMS5003;60223;34.854;-92.408;2024-01-16T08:55:13;0;0;
37709;PMS5003;60223;34.854;-92.408;2024-01-16T08:57:38;2;2;
37709;PMS5003;60223;34.854;-92.408;2024-01-16T09:00:05;2;2;
37709;PMS5003;60223;34.854;-92.408;2024-01-16T09:02:30;1;1;
37709;PMS5003;60223;34.854;-92.408;2024-01-16T09:04:56;1;1;
37709;PMS5003;60223;34.854;-92.408;2024-01-16T09:07:22;1;1;
37709;PMS5003;60223;34.854;-92.408;2024-01-16T09:09:47;2;2;
37709;PMS5003;60223;34.854;-92.408;2024-01-16T09:12:13;2;2;
37709;PMS5003;60223;34.854;-92.408;2024-01-16T09:14:38;1;1;
37709;PMS5003;60223;34.854;-92.408;2024-01-16T09:17:03;3;2;
37709;PMS5003;60223;34.854;-92.408;2024-01-16T09:19:29;2;2;
37709;PMS5003;60223;34.854;-92.408;2024-01-16T09:21:55;1;1;
37709;PMS5003;60223;34.854;-92.408;2024-01-16T09:24:21;1;1;
37709;PMS5003;60223;34.854;-92.408;2024-01-16T09:26:43;1;1;
37709;PMS5003;60223;34.854;-92.408;2024-01-16T09:29:11;1;1;
37709;PMS5003;60223;34.854;-92.408;2024-01-16T09:31:37;1;1;
37709;PMS5003;60223;34.854;-92.408;2024-01-16T09:34:03;0;0;
37709;PMS5003;60223;34.854;-92.408;2024-01-16T09:36:27;0;0;
37709;PMS5003;60223;34.854;-92.408;2024-01-16T09:38:54;1;1;
37709;PMS5003;60223;34.854;-92.408;2024-01-16T09:41:20;1;1;
37709;PMS5003;60223;34.854;-92.408;2024-01-16T09:43:42;2;2;
37709;PMS5003;60223;34.854;-92.408;2024-01-16T09:46:11;1;1;
37709;PMS5003;60223;34.854;-92.408;2024-01-16T09:48:37;0;0;
37709;PMS5003;60223;34.854;-92.408;2024-01-16T09:51:01;1;1;
37709;PMS5003;60223;34.854;-92.408;2024-01-16T09:53:28;1;1;
37709;PMS5003;60223;34.854;-92.408;2024-01-16T09:55:54;2;2;
37709;PMS5003;60223;34.854;-92.408;2024-01-16T09:58:19;2;1;
37709;PMS5003;60223;34.854;-92.408;2024-01-16T10:00:44;2;2;
37709;PMS5003;60223;34.854;-92.408;2024-01-16T10:03:10;1;1;
37709;PMS5003;60223;34.854;-92.408;2024-01-16T10:05:36;1;1;
37709;PMS5003;60223;34.854;-92.408;2024-01-16T10:08:02;1;1;
37709;PMS5003;60223;34.854;-92.408;2024-01-16T10:10:27;1;1;
37709;PMS5003;60223;34.854;-92.408;2024-01-16T10:12:52;2;2;
37709;PMS5003;60223;34.854;-92.408;2024-01-16T10:15:19;1;1;
37709;PMS5003;60223;34.854;-92.408;2024-01-16T10:17:44;1;1;
37709;PMS5003;60223;34.854;-92.408;2024-01-16T10:20:10;1;1;
37709;PMS5003;60223;34.854;-92.408;2024-01-16T10:22:34;1;1;
37709;PMS5003;60223;34.854;-92.408;2024-01-16T10:25:04;1;1;
37709;PMS5003;60223;34.854;-92.408;2024-01-16T10:27:27;1;1;
37709;PMS5003;60223;34.854;-92.408;2024-01-16T10:29:55;0;0;
37709;PMS5003;60223;34.854;-92.408;2024-01-16T10:34:43;1;1;
37709;PMS5003;60223;34.854;-92.408;2024-01-16T10:37:09;1;1;
37709;PMS5003;60223;34.854;-92.408;2024-01-16T10:39:35;2;2;
37709;PMS5003;60223;34.854;-92.408;2024-01-16T10:42:00;1;1;
37709;PMS5003;60223;34.854;-92.408;2024-01-16T10:44:26;1;1;
37709;PMS5003;60223;34.854;-92.408;2024-01-16T10:46:51;2;2;
37709;PMS5003;60223;34.854;-92.408;2024-01-16T10:49:17;1;1;
37709;PMS5003;60223;34.854;-92.408;2024-01-16T10:51:43;0;0;
37709;PMS5003;60223;34.854;-92.408;2024-01-16T10:54:12;1;1;
37709;PMS5003;60223;34.854;-92.408;2024-01-16T10:56:34;2;2;
37709;PMS5003;60223;34.854;-92.408;2024-01-16T10:59:01;1;1;
37709;PMS5003;60223;34.854;-92.408;2024-01-16T11:01:25;0;0;
37709;PMS5003;60223;34.854;-92.408;2024-01-16T11:03:51;0;0;
37709;PMS5003;60223;34.854;-92.408;2024-01-16T11:06:15;2;2;
37709;PMS5003;60223;34.854;-92.408;2024-01-16T11:08:42;1;1;
37709;PMS5003;60223;34.854;-92.408;2024-01-16T11:11:08;1;1;
37709;PMS5003;60223;34.854;-92.408;2024-01-16T11:13:34;0;0;
37709;PMS5003;60223;34.854;-92.408;2024-01-16T11:16:00;0;0;
37709;PMS5003;60223;34.854;-92.408;2024-01-16T11:18:24;1;1;
37709;PMS5003;60223;34.854;-92.408;2024-01-16T11:20:50;1;1;
37709;PMS5003;60223;34.854;-92.408;2024-01-16T11:23:16;2;2;
37709;PMS5003;60223;34.854;-92.408;2024-01-16T11:25:41;1;1;
37709;PMS5003;60223;34.854;-92.408;2024-01-16T11:28:07;1;1;
37709;PMS5003;60223;34.854;-92.408;2024-01-16T11:30:32;0;0;
37709;PMS5003;60223;34.854;-92.408;2024-01-16T11:32:58;2;2;
37709;PMS5003;60223;34.854;-92.408;2024-01-16T11:37:48;1;1;
37709;PMS5003;60223;34.854;-92.408;2024-01-16T11:40:21;1;1;
37709;PMS5003;60223;34.854;-92.408;2024-01-16T11:42:41;0;0;
37709;PMS5003;60223;34.854;-92.408;2024-01-16T11:45:07;2;2;
37709;PMS5003;60223;34.854;-92.408;2024-01-16T11:47:31;1;1;
37709;PMS5003;60223;34.854;-92.408;2024-01-16T11:54:49;1;1;
37709;PMS5003;60223;34.854;-92.408;2024-01-16T11:59:42;3;3;
37709;PMS5003;60223;34.854;-92.408;2024-01-16T12:02:09;1;1;
37709;PMS5003;60223;34.854;-92.408;2024-01-16T12:04:31;1;1;
37709;PMS5003;60223;34.854;-92.408;2024-01-16T12:06:57;1;1;
37709;PMS5003;60223;34.854;-92.408;2024-01-16T12:09:21;1;1;
37709;PMS5003;60223;34.854;-92.408;2024-01-16T12:14:14;1;1;
37709;PMS5003;60223;34.854;-92.408;2024-01-16T12:16:39;0;0;
37709;PMS5003;60223;34.854;-92.408;2024-01-16T12:19:05;1;1;
37709;PMS5003;60223;34.854;-92.408;2024-01-16T12:21:31;1;1;
37709;PMS5003;60223;34.854;-92.408;2024-01-16T12:23:56;1;1;
37709;PMS5003;60223;34.854;-92.408;2024-01-16T12:26:22;2;2;
37709;PMS5003;60223;34.854;-92.408;2024-01-16T12:28:50;1;1;
37709;PMS5003;60223;34.854;-92.408;2024-01-16T12:31:10;1;1;
37709;PMS5003;60223;34.854;-92.408;2024-01-16T12:33:37;0;0;
37709;PMS5003;60223;34.854;-92.408;2024-01-16T12:36:04;2;2;
37709;PMS5003;60223;34.854;-92.408;2024-01-16T12:38:30;0;0;
37709;PMS5003;60223;34.854;-92.408;2024-01-16T12:40:55;1;1;
37709;PMS5003;60223;34.854;-92.408;2024-01-16T12:43:20;1;1;
37709;PMS5003;60223;34.854;-92.408;2024-01-16T12:45:47;1;1;
37709;PMS5003;60223;34.854;-92.408;2024-01-16T12:48:12;2;2;
37709;PMS5003;60223;34.854;-92.408;2024-01-16T12:50:36;0;0;
37709;PMS5003;60223;34.854;-92.408;2024-01-16T12:53:03;1;0;
37709;PMS5003;60223;34.854;-92.408;2024-01-16T12:55:29;0;0;
37709;PMS5003;60223;34.854;-92.408;2024-01-16T13:00:21;1;1;
37709;PMS5003;60223;34.854;-92.408;2024-01-16T13:02:48;1;1;
37709;PMS5003;60223;34.854;-92.408;2024-01-16T13:05:08;2;2;
37709;PMS5003;60223;34.854;-92.408;2024-01-16T13:07:37;1;1;
37709;PMS5003;60223;34.854;-92.408;2024-01-16T13:10:06;1;1;
37709;PMS5003;60223;34.854;-92.408;2024-01-16T13:12:28;2;0;
37709;PMS5003;60223;34.854;-92.408;2024-01-16T13:14:54;1;1;
37709;PMS5003;60223;34.854;-92.408;2024-01-16T13:17:19;0;0;
37709;PMS5003;60223;34.854;-92.408;2024-01-16T13:19:45;3;3;
37709;PMS5003;60223;34.854;-92.408;2024-01-16T13:22:11;1;1;
37709;PMS5003;60223;34.854;-92.408;2024-01-16T13:24:34;0;0;
37709;PMS5003;60223;34.854;-92.408;2024-01-16T13:27:02;0;0;
37709;PMS5003;60223;34.854;-92.408;2024-01-16T13:29:28;0;0;
37709;PMS5003;60223;34.854;-92.408;2024-01-16T13:31:53;2;2;
37709;PMS5003;60223;34.854;-92.408;2024-01-16T13:36:44;0;0;
37709;PMS5003;60223;34.854;-92.408;2024-01-16T13:39:08;0;0;
37709;PMS5003;60223;34.854;-92.408;2024-01-16T13:41:36;0;0;
37709;PMS5003;60223;34.854;-92.408;2024-01-16T13:44:01;1;1;
37709;PMS5003;60223;34.854;-92.408;2024-01-16T13:46:27;0;0;
37709;PMS5003;60223;34.854;-92.408;2024-01-16T13:48:51;1;1;
37709;PMS5003;60223;34.854;-92.408;2024-01-16T13:51:19;0;0;
37709;PMS5003;60223;34.854;-92.408;2024-01-16T13:53:44;0;0;
37709;PMS5003;60223;34.854;-92.408;2024-01-16T13:56:10;0;0;
37709;PMS5003;60223;34.854;-92.408;2024-01-16T13:58:35;0;0;
37709;PMS5003;60223;34.854;-92.408;2024-01-16T14:01:01;1;0;
37709;PMS5003;60223;34.854;-92.408;2024-01-16T14:03:27;0;0;
37709;PMS5003;60223;34.854;-92.408;2024-01-16T14:05:52;0;0;
37709;PMS5003;60223;34.854;-92.408;2024-01-16T14:08:18;0;0;
37709;PMS5003;60223;34.854;-92.408;2024-01-16T14:10:42;0;0;
37709;PMS5003;60223;34.854;-92.408;2024-01-16T14:13:09;0;0;
37709;PMS5003;60223;34.854;-92.408;2024-01-16T14:15:35;0;0;
37709;PMS5003;60223;34.854;-92.408;2024-01-16T14:18:00;0;0;
37709;PMS5003;60223;34.854;-92.408;2024-01-16T14:20:26;1;1;
37709;PMS5003;60223;34.854;-92.408;2024-01-16T14:22:49;1;1;
37709;PMS5003;60223;34.854;-92.408;2024-01-16T14:25:17;0;0;
37709;PMS5003;60223;34.854;-92.408;2024-01-16T14:27:43;0;0;
37709;PMS5003;60223;34.854;-92.408;2024-01-16T14:30:09;1;1;
37709;PMS5003;60223;34.854;-92.408;2024-01-16T14:32:33;0;0;
37709;PMS5003;60223;34.854;-92.408;2024-01-16T14:35:00;0;0;
37709;PMS5003;60223;34.854;-92.408;2024-01-16T14:37:25;2;1;
37709;PMS5003;60223;34.854;-92.408;2024-01-16T14:39:51;0;0;
37709;PMS5003;60223;34.854;-92.408;2024-01-16T14:42:16;0;0;
37709;PMS5003;60223;34.854;-92.408;2024-01-16T14:44:42;2;1;
37709;PMS5003;60223;34.854;-92.408;2024-01-16T14:47:08;1;0;
37709;PMS5003;60223;34.854;-92.408;2024-01-16T14:49:33;0;0;
37709;PMS5003;60223;34.854;-92.408;2024-01-16T14:54:25;0;0;
37709;PMS5003;60223;34.854;-92.408;2024-01-16T14:56:50;0;0;
37709;PMS5003;60223;34.854;-92.408;2024-01-16T14:59:16;0;0;
37709;PMS5003;60223;34.854;-92.408;2024-01-16T15:01:42;0;0;
37709;PMS5003;60223;34.854;-92.408;2024-01-16T15:04:08;0;0;
37709;PMS5003;60223;34.854;-92.408;2024-01-16T15:06:33;0;0;
37709;PMS5003;60223;34.854;-92.408;2024-01-16T15:08:59;0;0;
37709;PMS5003;60223;34.854;-92.408;2024-01-16T15:11:23;0;0;
37709;PMS5003;60223;34.854;-92.408;2024-01-16T15:13:50;0;0;
37709;PMS5003;60223;34.854;-92.408;2024-01-16T15:16:16;0;0;
37709;PMS5003;60223;34.854;-92.408;2024-01-16T15:18:42;0;0;
37709;PMS5003;60223;34.854;-92.408;2024-01-16T15:21:07;0;0;
37709;PMS5003;60223;34.854;-92.408;2024-01-16T15:23:32;0;0;
37709;PMS5003;60223;34.854;-92.408;2024-01-16T15:25:58;0;0;
37709;PMS5003;60223;34.854;-92.408;2024-01-16T15:28:24;0;0;
37709;PMS5003;60223;34.854;-92.408;2024-01-16T15:30:48;0;0;
37709;PMS5003;60223;34.854;-92.408;2024-01-16T15:33:16;0;0;
37709;PMS5003;60223;34.854;-92.408;2024-01-16T15:35:41;0;0;
37709;PMS5003;60223;34.854;-92.408;2024-01-16T15:38:07;0;0;
37709;PMS5003;60223;34.854;-92.408;2024-01-16T15:40:31;0;0;
37709;PMS5003;60223;34.854;-92.408;2024-01-16T15:42:55;0;0;
37709;PMS5003;60223;34.854;-92.408;2024-01-16T15:45:24;0;0;
37709;PMS5003;60223;34.854;-92.408;2024-01-16T15:47:49;0;0;
37709;PMS5003;60223;34.854;-92.408;2024-01-16T15:50:15;0;0;
37709;PMS5003;60223;34.854;-92.408;2024-01-16T15:52:40;0;0;
37709;PMS5003;60223;34.854;-92.408;2024-01-16T15:55:06;0;0;
37709;PMS5003;60223;34.854;-92.408;2024-01-16T15:57:30;0;0;
37709;PMS5003;60223;34.854;-92.408;2024-01-16T15:59:57;1;1;
37709;PMS5003;60223;34.854;-92.408;2024-01-16T16:02:23;0;0;
37709;PMS5003;60223;34.854;-92.408;2024-01-16T16:04:49;0;0;
37709;PMS5003;60223;34.854;-92.408;2024-01-16T16:07:12;0;0;
37709;PMS5003;60223;34.854;-92.408;2024-01-16T16:09:40;0;0;
37709;PMS5003;60223;34.854;-92.408;2024-01-16T16:12:06;0;0;
37709;PMS5003;60223;34.854;-92.408;2024-01-16T16:14:30;0;0;
37709;PMS5003;60223;34.854;-92.408;2024-01-16T16:16:57;0;0;
37709;PMS5003;60223;34.854;-92.408;2024-01-16T16:19:23;0;0;
37709;PMS5003;60223;34.854;-92.408;2024-01-16T16:21:48;0;0;
37709;PMS5003;60223;34.854;-92.408;2024-01-16T16:24:14;0;0;
37709;PMS5003;60223;34.854;-92.408;2024-01-16T16:26:40;0;0;
37709;PMS5003;60223;34.854;-92.408;2024-01-16T16:29:06;0;0;
37709;PMS5003;60223;34.854;-92.408;2024-01-16T16:31:31;0;0;
37709;PMS5003;60223;34.854;-92.408;2024-01-16T16:33:56;0;0;
37709;PMS5003;60223;34.854;-92.408;2024-01-16T16:36:22;0;0;
37709;PMS5003;60223;34.854;-92.408;2024-01-16T16:38:48;0;0;
37709;PMS5003;60223;34.854;-92.408;2024-01-16T16:41:14;0;0;
37709;PMS5003;60223;34.854;-92.408;2024-01-16T16:43:38;0;0;
37709;PMS5003;60223;34.854;-92.408;2024-01-16T16:46:04;0;0;
37709;PMS5003;60223;34.854;-92.408;2024-01-16T16:48:31;0;0;
37709;PMS5003;60223;34.854;-92.408;2024-01-16T16:50:56;0;0;
37709;PMS5003;60223;34.854;-92.408;2024-01-16T16:53:21;0;0;
37709;PMS5003;60223;34.854;-92.408;2024-01-16T16:55:46;0;0;
37709;PMS5003;60223;34.854;-92.408;2024-01-16T16:58:13;0;0;
37709;PMS5003;60223;34.854;-92.408;2024-01-16T17:00:39;0;0;
37709;PMS5003;60223;34.854;-92.408;2024-01-16T17:03:05;0;0;